sensor_id;sensor_type;location;lat;lon;timestamp;temperature;humidity
25112;DHT22;13092;51.996;4.458;2023-05-07T00:00:47;17.00;99.90
25112;DHT22;13092;51.996;4.458;2023-05-07T00:03:15;16.90;99.90
25112;DHT22;13092;51.996;4.458;2023-05-07T00:05:43;16.90;99.90
25112;DHT22;13092;51.996;4.458;2023-05-07T00:08:12;16.90;99.90
25112;DHT22;13092;51.996;4.458;2023-05-07T00:10:42;16.90;99.90
25112;DHT22;13092;51.996;4.458;2023-05-07T00:13:10;16.90;99.90
25112;DHT22;13092;51.996;4.458;2023-05-07T00:15:40;16.90;99.90
25112;DHT22;13092;51.996;4.458;2023-05-07T00:18:08;17.00;99.90
25112;DHT22;13092;51.996;4.458;2023-05-07T00:20:37;16.90;99.90
25112;DHT22;13092;51.996;4.458;2023-05-07T00:23:06;16.80;99.90
25112;DHT22;13092;51.996;4.458;2023-05-07T00:25:34;16.80;99.90
25112;DHT22;13092;51.996;4.458;2023-05-07T00:28:03;16.80;99.90
25112;DHT22;13092;51.996;4.458;2023-05-07T00:30:31;16.80;99.90
25112;DHT22;13092;51.996;4.458;2023-05-07T00:33:01;16.70;99.90
25112;DHT22;13092;51.996;4.458;2023-05-07T00:35:29;16.80;99.90
25112;DHT22;13092;51.996;4.458;2023-05-07T00:37:58;16.80;99.90
25112;DHT22;13092;51.996;4.458;2023-05-07T00:40:27;16.80;99.90
25112;DHT22;13092;51.996;4.458;2023-05-07T00:42:56;16.80;99.90
25112;DHT22;13092;51.996;4.458;2023-05-07T00:45:26;16.70;99.90
25112;DHT22;13092;51.996;4.458;2023-05-07T00:47:56;16.70;99.90
25112;DHT22;13092;51.996;4.458;2023-05-07T00:50:27;16.70;99.90
25112;DHT22;13092;51.996;4.458;2023-05-07T00:52:58;16.70;99.90
25112;DHT22;13092;51.996;4.458;2023-05-07T00:55:27;16.60;99.90
25112;DHT22;13092;51.996;4.458;2023-05-07T00:57:56;16.60;99.90
25112;DHT22;13092;51.996;4.458;2023-05-07T01:00:24;16.60;99.90
25112;DHT22;13092;51.996;4.458;2023-05-07T01:02:54;16.60;99.90
25112;DHT22;13092;51.996;4.458;2023-05-07T01:05:27;16.60;99.90
25112;DHT22;13092;51.996;4.458;2023-05-07T01:07:59;16.60;99.90
25112;DHT22;13092;51.996;4.458;2023-05-07T01:10:28;16.60;99.90
25112;DHT22;13092;51.996;4.458;2023-05-07T01:12:58;16.60;99.90
25112;DHT22;13092;51.996;4.458;2023-05-07T01:15:29;16.50;99.90
25112;DHT22;13092;51.996;4.458;2023-05-07T01:17:58;16.50;99.90
25112;DHT22;13092;51.996;4.458;2023-05-07T01:20:28;16.50;99.90
25112;DHT22;13092;51.996;4.458;2023-05-07T01:22:58;16.40;99.90
25112;DHT22;13092;51.996;4.458;2023-05-07T01:25:27;16.40;99.90
25112;DHT22;13092;51.996;4.458;2023-05-07T01:27:57;16.40;99.90
25112;DHT22;13092;51.996;4.458;2023-05-07T01:30:26;16.40;99.90
25112;DHT22;13092;51.996;4.458;2023-05-07T01:32:59;16.40;99.90
25112;DHT22;13092;51.996;4.458;2023-05-07T01:35:32;16.30;99.90
25112;DHT22;13092;51.996;4.458;2023-05-07T01:38:03;16.30;99.90
25112;DHT22;13092;51.996;4.458;2023-05-07T01:40:33;16.40;99.90
25112;DHT22;13092;51.996;4.458;2023-05-07T01:43:03;16.30;99.90
25112;DHT22;13092;51.996;4.458;2023-05-07T01:45:33;16.30;99.90
25112;DHT22;13092;51.996;4.458;2023-05-07T01:48:02;16.30;99.90
25112;DHT22;13092;51.996;4.458;2023-05-07T01:50:31;16.30;99.90
25112;DHT22;13092;51.996;4.458;2023-05-07T01:53:02;16.30;99.90
25112;DHT22;13092;51.996;4.458;2023-05-07T01:55:30;16.50;99.90
25112;DHT22;13092;51.996;4.458;2023-05-07T01:57:59;16.30;99.90
25112;DHT22;13092;51.996;4.458;2023-05-07T02:00:27;16.30;99.90
25112;DHT22;13092;51.996;4.458;2023-05-07T02:02:56;16.30;99.90
25112;DHT22;13092;51.996;4.458;2023-05-07T02:05:24;16.30;99.90
25112;DHT22;13092;51.996;4.458;2023-05-07T02:07:53;16.30;99.90
25112;DHT22;13092;51.996;4.458;2023-05-07T02:10:22;16.30;99.90
25112;DHT22;13092;51.996;4.458;2023-05-07T02:12:51;16.30;99.90
25112;DHT22;13092;51.996;4.458;2023-05-07T02:15:19;16.40;99.90
25112;DHT22;13092;51.996;4.458;2023-05-07T02:18:01;16.40;99.90
25112;DHT22;13092;51.996;4.458;2023-05-07T02:20:29;16.30;99.90
25112;DHT22;13092;51.996;4.458;2023-05-07T02:22:58;16.30;99.90
25112;DHT22;13092;51.996;4.458;2023-05-07T02:25:28;16.30;99.90
25112;DHT22;13092;51.996;4.458;2023-05-07T02:27:57;16.30;99.90
25112;DHT22;13092;51.996;4.458;2023-05-07T02:30:26;16.30;99.90
25112;DHT22;13092;51.996;4.458;2023-05-07T02:32:54;16.30;99.90
25112;DHT22;13092;51.996;4.458;2023-05-07T02:35:24;16.30;99.90
25112;DHT22;13092;51.996;4.458;2023-05-07T02:37:52;16.40;99.90
25112;DHT22;13092;51.996;4.458;2023-05-07T02:40:21;16.50;99.90
25112;DHT22;13092;51.996;4.458;2023-05-07T02:42:51;16.30;99.90
25112;DHT22;13092;51.996;4.458;2023-05-07T02:45:19;16.30;99.90
25112;DHT22;13092;51.996;4.458;2023-05-07T02:47:47;16.30;99.90
25112;DHT22;13092;51.996;4.458;2023-05-07T02:50:18;16.30;99.90
25112;DHT22;13092;51.996;4.458;2023-05-07T02:52:47;16.30;99.90
25112;DHT22;13092;51.996;4.458;2023-05-07T02:55:15;16.30;99.90
25112;DHT22;13092;51.996;4.458;2023-05-07T02:57:43;16.30;99.90
25112;DHT22;13092;51.996;4.458;2023-05-07T03:00:15;16.30;99.90
25112;DHT22;13092;51.996;4.458;2023-05-07T03:02:43;16.30;99.90
25112;DHT22;13092;51.996;4.458;2023-05-07T03:05:12;16.20;99.90
25112;DHT22;13092;51.996;4.458;2023-05-07T03:07:41;16.30;99.90
25112;DHT22;13092;51.996;4.458;2023-05-07T03:10:12;16.40;99.90
25112;DHT22;13092;51.996;4.458;2023-05-07T03:12:43;16.40;99.90
25112;DHT22;13092;51.996;4.458;2023-05-07T03:15:13;16.40;99.90
25112;DHT22;13092;51.996;4.458;2023-05-07T03:17:41;16.30;99.90
25112;DHT22;13092;51.996;4.458;2023-05-07T03:20:10;16.40;99.90
25112;DHT22;13092;51.996;4.458;2023-05-07T03:22:40;16.40;99.90
25112;DHT22;13092;51.996;4.458;2023-05-07T03:25:09;16.40;99.90
25112;DHT22;13092;51.996;4.458;2023-05-07T03:27:38;16.50;99.90
25112;DHT22;13092;51.996;4.458;2023-05-07T03:30:12;16.40;99.90
25112;DHT22;13092;51.996;4.458;2023-05-07T03:32:42;16.40;99.90
25112;DHT22;13092;51.996;4.458;2023-05-07T03:35:10;16.50;99.90
25112;DHT22;13092;51.996;4.458;2023-05-07T03:37:39;16.50;99.90
25112;DHT22;13092;51.996;4.458;2023-05-07T03:40:08;16.50;99.90
25112;DHT22;13092;51.996;4.458;2023-05-07T03:42:39;16.40;99.90
25112;DHT22;13092;51.996;4.458;2023-05-07T03:45:10;16.40;99.90
25112;DHT22;13092;51.996;4.458;2023-05-07T03:47:38;16.40;99.90
25112;DHT22;13092;51.996;4.458;2023-05-07T03:50:10;16.40;99.90
25112;DHT22;13092;51.996;4.458;2023-05-07T03:52:39;16.40;99.90
25112;DHT22;13092;51.996;4.458;2023-05-07T03:55:11;16.40;99.90
25112;DHT22;13092;51.996;4.458;2023-05-07T03:57:39;16.50;99.90
25112;DHT22;13092;51.996;4.458;2023-05-07T04:00:08;16.40;99.90
25112;DHT22;13092;51.996;4.458;2023-05-07T04:02:37;16.40;99.90
25112;DHT22;13092;51.996;4.458;2023-05-07T04:05:06;16.30;99.90
25112;DHT22;13092;51.996;4.458;2023-05-07T04:07:35;16.40;99.90
25112;DHT22;13092;51.996;4.458;2023-05-07T04:10:04;16.40;99.90
25112;DHT22;13092;51.996;4.458;2023-05-07T04:12:33;16.40;99.90
25112;DHT22;13092;51.996;4.458;2023-05-07T04:15:02;16.40;99.90
25112;DHT22;13092;51.996;4.458;2023-05-07T04:17:30;16.40;99.90
25112;DHT22;13092;51.996;4.458;2023-05-07T04:19:58;16.40;99.90
25112;DHT22;13092;51.996;4.458;2023-05-07T04:22:27;16.40;99.90
25112;DHT22;13092;51.996;4.458;2023-05-07T04:24:57;16.40;99.90
25112;DHT22;13092;51.996;4.458;2023-05-07T04:27:25;16.50;99.90
25112;DHT22;13092;51.996;4.458;2023-05-07T04:29:54;16.50;99.90
25112;DHT22;13092;51.996;4.458;2023-05-07T04:32:23;16.50;99.90
25112;DHT22;13092;51.996;4.458;2023-05-07T04:34:52;16.40;99.90
25112;DHT22;13092;51.996;4.458;2023-05-07T04:37:20;16.40;99.90
25112;DHT22;13092;51.996;4.458;2023-05-07T04:39:48;16.50;99.90
25112;DHT22;13092;51.996;4.458;2023-05-07T04:42:21;16.50;99.90
25112;DHT22;13092;51.996;4.458;2023-05-07T04:44:52;16.50;99.90
25112;DHT22;13092;51.996;4.458;2023-05-07T04:47:21;16.50;99.90
25112;DHT22;13092;51.996;4.458;2023-05-07T04:49:49;16.50;99.90
25112;DHT22;13092;51.996;4.458;2023-05-07T04:52:20;16.70;99.90
25112;DHT22;13092;51.996;4.458;2023-05-07T04:54:51;16.50;99.90
25112;DHT22;13092;51.996;4.458;2023-05-07T04:57:21;16.50;99.90
25112;DHT22;13092;51.996;4.458;2023-05-07T04:59:49;16.50;99.90
25112;DHT22;13092;51.996;4.458;2023-05-07T05:02:17;16.50;99.90
25112;DHT22;13092;51.996;4.458;2023-05-07T05:04:46;16.50;99.90
25112;DHT22;13092;51.996;4.458;2023-05-07T05:07:15;16.60;99.90
25112;DHT22;13092;51.996;4.458;2023-05-07T05:09:43;16.60;99.90
25112;DHT22;13092;51.996;4.458;2023-05-07T05:12:11;16.40;99.90
25112;DHT22;13092;51.996;4.458;2023-05-07T05:14:41;16.70;99.90
25112;DHT22;13092;51.996;4.458;2023-05-07T05:17:09;16.80;99.90
25112;DHT22;13092;51.996;4.458;2023-05-07T05:19:38;16.70;99.90
25112;DHT22;13092;51.996;4.458;2023-05-07T05:22:06;16.70;99.90
25112;DHT22;13092;51.996;4.458;2023-05-07T05:24:35;16.70;99.90
25112;DHT22;13092;51.996;4.458;2023-05-07T05:27:03;16.80;99.90
25112;DHT22;13092;51.996;4.458;2023-05-07T05:29:32;16.80;99.90
25112;DHT22;13092;51.996;4.458;2023-05-07T05:32:02;16.70;99.90
25112;DHT22;13092;51.996;4.458;2023-05-07T05:34:30;16.80;99.90
25112;DHT22;13092;51.996;4.458;2023-05-07T05:37:00;16.80;99.90
25112;DHT22;13092;51.996;4.458;2023-05-07T05:39:28;16.70;99.90
25112;DHT22;13092;51.996;4.458;2023-05-07T05:41:56;16.80;99.90
25112;DHT22;13092;51.996;4.458;2023-05-07T05:44:24;16.90;99.90
25112;DHT22;13092;51.996;4.458;2023-05-07T05:46:53;16.80;99.90
25112;DHT22;13092;51.996;4.458;2023-05-07T05:49:26;16.90;99.90
25112;DHT22;13092;51.996;4.458;2023-05-07T05:51:54;16.90;99.90
25112;DHT22;13092;51.996;4.458;2023-05-07T05:54:22;17.00;99.90
25112;DHT22;13092;51.996;4.458;2023-05-07T05:56:50;17.00;99.90
25112;DHT22;13092;51.996;4.458;2023-05-07T05:59:19;17.00;99.90
25112;DHT22;13092;51.996;4.458;2023-05-07T06:01:47;17.00;99.90
25112;DHT22;13092;51.996;4.458;2023-05-07T06:04:16;17.10;99.90
25112;DHT22;13092;51.996;4.458;2023-05-07T06:06:45;17.10;99.90
25112;DHT22;13092;51.996;4.458;2023-05-07T06:09:14;17.10;99.90
25112;DHT22;13092;51.996;4.458;2023-05-07T06:11:42;17.10;99.90
25112;DHT22;13092;51.996;4.458;2023-05-07T06:14:10;17.20;99.90
25112;DHT22;13092;51.996;4.458;2023-05-07T06:16:38;17.20;99.90
25112;DHT22;13092;51.996;4.458;2023-05-07T06:19:07;17.30;99.90
25112;DHT22;13092;51.996;4.458;2023-05-07T06:21:35;17.30;99.90
25112;DHT22;13092;51.996;4.458;2023-05-07T06:24:06;17.30;99.90
25112;DHT22;13092;51.996;4.458;2023-05-07T06:26:34;17.30;99.90
25112;DHT22;13092;51.996;4.458;2023-05-07T06:29:03;17.30;99.90
25112;DHT22;13092;51.996;4.458;2023-05-07T06:31:31;17.30;99.90
25112;DHT22;13092;51.996;4.458;2023-05-07T06:33:59;17.40;99.90
25112;DHT22;13092;51.996;4.458;2023-05-07T06:36:29;17.40;99.90
25112;DHT22;13092;51.996;4.458;2023-05-07T06:38:57;17.60;99.90
25112;DHT22;13092;51.996;4.458;2023-05-07T06:41:29;17.50;99.90
25112;DHT22;13092;51.996;4.458;2023-05-07T06:43:58;17.50;99.90
25112;DHT22;13092;51.996;4.458;2023-05-07T06:46:26;17.50;99.90
25112;DHT22;13092;51.996;4.458;2023-05-07T06:48:55;17.50;99.90
25112;DHT22;13092;51.996;4.458;2023-05-07T06:51:24;17.60;99.90
25112;DHT22;13092;51.996;4.458;2023-05-07T06:53:52;17.60;99.90
25112;DHT22;13092;51.996;4.458;2023-05-07T06:56:21;17.50;99.90
25112;DHT22;13092;51.996;4.458;2023-05-07T06:58:51;17.40;99.90
25112;DHT22;13092;51.996;4.458;2023-05-07T07:01:19;17.50;99.90
25112;DHT22;13092;51.996;4.458;2023-05-07T07:03:48;17.60;99.90
25112;DHT22;13092;51.996;4.458;2023-05-07T07:06:18;17.60;99.90
25112;DHT22;13092;51.996;4.458;2023-05-07T07:08:46;17.60;99.90
25112;DHT22;13092;51.996;4.458;2023-05-07T07:11:16;17.80;99.90
25112;DHT22;13092;51.996;4.458;2023-05-07T07:13:44;17.70;99.90
25112;DHT22;13092;51.996;4.458;2023-05-07T07:16:17;18.00;99.90
25112;DHT22;13092;51.996;4.458;2023-05-07T07:18:45;18.10;99.90
25112;DHT22;13092;51.996;4.458;2023-05-07T07:21:13;18.10;99.90
25112;DHT22;13092;51.996;4.458;2023-05-07T07:23:42;18.10;99.90
25112;DHT22;13092;51.996;4.458;2023-05-07T07:26:10;18.20;99.90
25112;DHT22;13092;51.996;4.458;2023-05-07T07:28:42;18.30;99.90
25112;DHT22;13092;51.996;4.458;2023-05-07T07:31:13;18.40;99.90
25112;DHT22;13092;51.996;4.458;2023-05-07T07:33:43;18.40;99.90
25112;DHT22;13092;51.996;4.458;2023-05-07T07:36:11;18.60;99.90
25112;DHT22;13092;51.996;4.458;2023-05-07T07:38:41;18.80;99.90
25112;DHT22;13092;51.996;4.458;2023-05-07T07:41:09;18.80;99.90
25112;DHT22;13092;51.996;4.458;2023-05-07T07:43:38;18.80;99.90
25112;DHT22;13092;51.996;4.458;2023-05-07T07:46:08;19.00;99.90
25112;DHT22;13092;51.996;4.458;2023-05-07T07:48:36;19.00;99.90
25112;DHT22;13092;51.996;4.458;2023-05-07T07:51:06;19.00;99.90
25112;DHT22;13092;51.996;4.458;2023-05-07T07:53:35;19.10;99.90
25112;DHT22;13092;51.996;4.458;2023-05-07T07:56:03;19.20;99.90
25112;DHT22;13092;51.996;4.458;2023-05-07T07:58:32;19.30;99.90
25112;DHT22;13092;51.996;4.458;2023-05-07T08:01:04;19.30;99.90
25112;DHT22;13092;51.996;4.458;2023-05-07T08:03:32;19.40;99.90
25112;DHT22;13092;51.996;4.458;2023-05-07T08:06:01;19.50;99.90
25112;DHT22;13092;51.996;4.458;2023-05-07T08:08:30;19.50;99.90
25112;DHT22;13092;51.996;4.458;2023-05-07T08:10:59;19.60;99.90
25112;DHT22;13092;51.996;4.458;2023-05-07T08:13:29;19.60;99.90
25112;DHT22;13092;51.996;4.458;2023-05-07T08:16:00;19.60;99.90
25112;DHT22;13092;51.996;4.458;2023-05-07T08:18:29;19.70;99.90
25112;DHT22;13092;51.996;4.458;2023-05-07T08:20:57;19.80;99.90
25112;DHT22;13092;51.996;4.458;2023-05-07T08:23:25;19.90;99.90
25112;DHT22;13092;51.996;4.458;2023-05-07T08:25:56;19.90;99.90
25112;DHT22;13092;51.996;4.458;2023-05-07T08:28:24;19.90;99.90
25112;DHT22;13092;51.996;4.458;2023-05-07T08:30:52;19.90;99.90
25112;DHT22;13092;51.996;4.458;2023-05-07T08:33:21;20.10;99.90
25112;DHT22;13092;51.996;4.458;2023-05-07T08:35:49;20.30;99.90
25112;DHT22;13092;51.996;4.458;2023-05-07T08:38:17;20.20;99.90
25112;DHT22;13092;51.996;4.458;2023-05-07T08:40:55;20.20;99.90
25112;DHT22;13092;51.996;4.458;2023-05-07T08:43:26;20.30;99.90
25112;DHT22;13092;51.996;4.458;2023-05-07T08:45:55;20.30;99.90
25112;DHT22;13092;51.996;4.458;2023-05-07T08:48:27;20.40;99.90
25112;DHT22;13092;51.996;4.458;2023-05-07T08:50:57;20.50;99.90
25112;DHT22;13092;51.996;4.458;2023-05-07T08:53:26;20.60;99.90
25112;DHT22;13092;51.996;4.458;2023-05-07T08:55:58;20.70;99.90
25112;DHT22;13092;51.996;4.458;2023-05-07T08:58:28;20.80;99.90
25112;DHT22;13092;51.996;4.458;2023-05-07T09:00:57;20.90;99.90
25112;DHT22;13092;51.996;4.458;2023-05-07T09:03:26;20.90;99.90
25112;DHT22;13092;51.996;4.458;2023-05-07T09:05:56;21.00;99.90
25112;DHT22;13092;51.996;4.458;2023-05-07T09:08:25;21.10;99.90
25112;DHT22;13092;51.996;4.458;2023-05-07T09:10:56;21.10;99.90
25112;DHT22;13092;51.996;4.458;2023-05-07T09:13:25;21.30;99.90
25112;DHT22;13092;51.996;4.458;2023-05-07T09:15:56;21.30;99.90
25112;DHT22;13092;51.996;4.458;2023-05-07T09:18:27;21.40;99.90
25112;DHT22;13092;51.996;4.458;2023-05-07T09:20:55;21.40;99.90
25112;DHT22;13092;51.996;4.458;2023-05-07T09:23:24;21.50;99.90
25112;DHT22;13092;51.996;4.458;2023-05-07T09:26:00;21.60;99.90
25112;DHT22;13092;51.996;4.458;2023-05-07T09:28:28;21.60;99.90
25112;DHT22;13092;51.996;4.458;2023-05-07T09:31:01;21.70;99.90
25112;DHT22;13092;51.996;4.458;2023-05-07T09:33:29;21.90;99.90
25112;DHT22;13092;51.996;4.458;2023-05-07T09:35:57;21.80;99.90
25112;DHT22;13092;51.996;4.458;2023-05-07T09:38:25;21.80;99.90
25112;DHT22;13092;51.996;4.458;2023-05-07T09:41:08;21.90;99.90
25112;DHT22;13092;51.996;4.458;2023-05-07T09:43:38;22.10;99.90
25112;DHT22;13092;51.996;4.458;2023-05-07T09:46:12;22.10;99.90
25112;DHT22;13092;51.996;4.458;2023-05-07T09:48:42;22.20;99.90
25112;DHT22;13092;51.996;4.458;2023-05-07T09:51:21;22.30;99.90
25112;DHT22;13092;51.996;4.458;2023-05-07T09:53:50;22.40;99.90
25112;DHT22;13092;51.996;4.458;2023-05-07T09:56:21;22.50;99.90
25112;DHT22;13092;51.996;4.458;2023-05-07T09:58:53;22.50;99.90
25112;DHT22;13092;51.996;4.458;2023-05-07T10:01:24;22.40;99.90
25112;DHT22;13092;51.996;4.458;2023-05-07T10:03:56;22.50;99.90
25112;DHT22;13092;51.996;4.458;2023-05-07T10:06:25;22.40;99.90
25112;DHT22;13092;51.996;4.458;2023-05-07T10:08:54;22.60;99.90
25112;DHT22;13092;51.996;4.458;2023-05-07T10:11:26;22.60;99.90
25112;DHT22;13092;51.996;4.458;2023-05-07T10:13:54;22.80;99.90
25112;DHT22;13092;51.996;4.458;2023-05-07T10:16:29;22.90;99.90
25112;DHT22;13092;51.996;4.458;2023-05-07T10:19:03;23.10;99.90
25112;DHT22;13092;51.996;4.458;2023-05-07T10:21:35;23.40;99.90
25112;DHT22;13092;51.996;4.458;2023-05-07T10:24:05;23.60;99.90
25112;DHT22;13092;51.996;4.458;2023-05-07T10:26:43;23.70;99.90
25112;DHT22;13092;51.996;4.458;2023-05-07T10:29:16;23.80;99.90
25112;DHT22;13092;51.996;4.458;2023-05-07T10:32:19;23.60;99.90
25112;DHT22;13092;51.996;4.458;2023-05-07T10:34:54;23.60;99.90
25112;DHT22;13092;51.996;4.458;2023-05-07T10:37:25;23.70;99.90
25112;DHT22;13092;51.996;4.458;2023-05-07T10:39:53;23.40;99.90
25112;DHT22;13092;51.996;4.458;2023-05-07T10:42:27;23.40;99.90
25112;DHT22;13092;51.996;4.458;2023-05-07T10:44:55;23.50;99.90
25112;DHT22;13092;51.996;4.458;2023-05-07T10:47:26;23.40;99.90
25112;DHT22;13092;51.996;4.458;2023-05-07T10:50:20;23.50;99.90
25112;DHT22;13092;51.996;4.458;2023-05-07T10:53:23;23.50;99.90
25112;DHT22;13092;51.996;4.458;2023-05-07T10:56:27;23.40;99.90
25112;DHT22;13092;51.996;4.458;2023-05-07T10:59:02;23.30;99.90
25112;DHT22;13092;51.996;4.458;2023-05-07T11:02:01;23.30;99.90
25112;DHT22;13092;51.996;4.458;2023-05-07T11:04:37;23.50;99.90
25112;DHT22;13092;51.996;4.458;2023-05-07T11:07:28;23.50;99.90
25112;DHT22;13092;51.996;4.458;2023-05-07T11:09:58;23.50;99.90
25112;DHT22;13092;51.996;4.458;2023-05-07T11:12:48;23.50;99.90
25112;DHT22;13092;51.996;4.458;2023-05-07T11:15:35;23.40;99.90
25112;DHT22;13092;51.996;4.458;2023-05-07T11:18:04;23.40;99.90
25112;DHT22;13092;51.996;4.458;2023-05-07T11:20:49;23.50;99.90
25112;DHT22;13092;51.996;4.458;2023-05-07T11:26:43;23.60;99.90
25112;DHT22;13092;51.996;4.458;2023-05-07T11:29:13;23.80;99.90
25112;DHT22;13092;51.996;4.458;2023-05-07T11:31:54;23.90;99.90
25112;DHT22;13092;51.996;4.458;2023-05-07T11:34:24;24.00;99.90
25112;DHT22;13092;51.996;4.458;2023-05-07T11:37:01;24.00;99.90
25112;DHT22;13092;51.996;4.458;2023-05-07T11:39:32;24.00;99.90
25112;DHT22;13092;51.996;4.458;2023-05-07T11:42:03;23.90;99.90
25112;DHT22;13092;51.996;4.458;2023-05-07T11:44:44;23.90;99.90
25112;DHT22;13092;51.996;4.458;2023-05-07T11:47:20;24.00;99.90
25112;DHT22;13092;51.996;4.458;2023-05-07T11:49:52;24.10;99.90
25112;DHT22;13092;51.996;4.458;2023-05-07T11:52:23;24.00;99.90
25112;DHT22;13092;51.996;4.458;2023-05-07T11:55:00;23.90;99.90
25112;DHT22;13092;51.996;4.458;2023-05-07T11:57:40;24.00;99.90
25112;DHT22;13092;51.996;4.458;2023-05-07T12:00:11;24.10;99.90
25112;DHT22;13092;51.996;4.458;2023-05-07T12:02:39;23.80;99.90
25112;DHT22;13092;51.996;4.458;2023-05-07T12:05:09;23.70;99.90
25112;DHT22;13092;51.996;4.458;2023-05-07T12:07:41;23.70;99.90
25112;DHT22;13092;51.996;4.458;2023-05-07T12:10:12;23.50;99.90
25112;DHT22;13092;51.996;4.458;2023-05-07T12:12:47;23.50;99.90
25112;DHT22;13092;51.996;4.458;2023-05-07T12:15:22;23.50;99.90
25112;DHT22;13092;51.996;4.458;2023-05-07T12:17:51;23.60;99.90
25112;DHT22;13092;51.996;4.458;2023-05-07T12:20:22;23.50;99.90
25112;DHT22;13092;51.996;4.458;2023-05-07T12:22:54;23.40;99.90
25112;DHT22;13092;51.996;4.458;2023-05-07T12:25:26;23.40;99.90
25112;DHT22;13092;51.996;4.458;2023-05-07T12:27:54;22.90;99.90
25112;DHT22;13092;51.996;4.458;2023-05-07T12:30:25;22.50;99.90
25112;DHT22;13092;51.996;4.458;2023-05-07T12:32:54;22.20;99.90
25112;DHT22;13092;51.996;4.458;2023-05-07T12:35:31;21.90;99.90
25112;DHT22;13092;51.996;4.458;2023-05-07T12:38:08;21.60;99.90
25112;DHT22;13092;51.996;4.458;2023-05-07T12:40:37;21.30;99.90
25112;DHT22;13092;51.996;4.458;2023-05-07T12:43:05;21.20;99.90
25112;DHT22;13092;51.996;4.458;2023-05-07T12:45:37;21.00;99.90
25112;DHT22;13092;51.996;4.458;2023-05-07T12:48:06;20.80;99.90
25112;DHT22;13092;51.996;4.458;2023-05-07T12:50:37;20.70;99.90
25112;DHT22;13092;51.996;4.458;2023-05-07T12:53:07;20.70;99.90
25112;DHT22;13092;51.996;4.458;2023-05-07T12:55:42;20.60;99.90
25112;DHT22;13092;51.996;4.458;2023-05-07T12:58:16;20.70;99.90
25112;DHT22;13092;51.996;4.458;2023-05-07T13:00:45;20.70;99.90
25112;DHT22;13092;51.996;4.458;2023-05-07T13:03:21;20.70;99.90
25112;DHT22;13092;51.996;4.458;2023-05-07T13:05:54;20.70;99.90
25112;DHT22;13092;51.996;4.458;2023-05-07T13:08:28;20.70;99.90
25112;DHT22;13092;51.996;4.458;2023-05-07T13:10:58;20.60;99.90
25112;DHT22;13092;51.996;4.458;2023-05-07T13:13:26;20.50;99.90
25112;DHT22;13092;51.996;4.458;2023-05-07T13:16:00;20.40;99.90
25112;DHT22;13092;51.996;4.458;2023-05-07T13:18:31;20.40;99.90
25112;DHT22;13092;51.996;4.458;2023-05-07T13:21:02;20.40;99.90
25112;DHT22;13092;51.996;4.458;2023-05-07T13:23:35;20.40;99.90
25112;DHT22;13092;51.996;4.458;2023-05-07T13:26:05;20.30;99.90
25112;DHT22;13092;51.996;4.458;2023-05-07T13:28:54;20.30;99.90
25112;DHT22;13092;51.996;4.458;2023-05-07T13:31:22;20.30;99.90
25112;DHT22;13092;51.996;4.458;2023-05-07T13:33:53;20.30;99.90
25112;DHT22;13092;51.996;4.458;2023-05-07T13:36:23;20.30;99.90
25112;DHT22;13092;51.996;4.458;2023-05-07T13:38:52;20.20;99.90
25112;DHT22;13092;51.996;4.458;2023-05-07T13:41:25;20.30;99.90
25112;DHT22;13092;51.996;4.458;2023-05-07T13:43:54;20.20;99.90
25112;DHT22;13092;51.996;4.458;2023-05-07T13:46:24;20.30;99.90
25112;DHT22;13092;51.996;4.458;2023-05-07T13:48:53;20.30;99.90
25112;DHT22;13092;51.996;4.458;2023-05-07T13:51:24;20.30;99.90
25112;DHT22;13092;51.996;4.458;2023-05-07T13:53:54;20.50;99.90
25112;DHT22;13092;51.996;4.458;2023-05-07T13:56:32;20.40;99.90
25112;DHT22;13092;51.996;4.458;2023-05-07T14:02:02;20.50;99.90
25112;DHT22;13092;51.996;4.458;2023-05-07T14:04:32;20.50;99.90
25112;DHT22;13092;51.996;4.458;2023-05-07T14:07:00;20.30;99.90
25112;DHT22;13092;51.996;4.458;2023-05-07T14:09:29;20.50;99.90
25112;DHT22;13092;51.996;4.458;2023-05-07T14:11:58;20.60;99.90
25112;DHT22;13092;51.996;4.458;2023-05-07T14:14:27;20.80;99.90
25112;DHT22;13092;51.996;4.458;2023-05-07T14:16:58;20.70;99.90
25112;DHT22;13092;51.996;4.458;2023-05-07T14:19:38;20.70;99.90
25112;DHT22;13092;51.996;4.458;2023-05-07T14:22:08;20.80;99.90
25112;DHT22;13092;51.996;4.458;2023-05-07T14:24:38;20.80;99.90
25112;DHT22;13092;51.996;4.458;2023-05-07T14:27:06;21.00;99.90
25112;DHT22;13092;51.996;4.458;2023-05-07T14:29:34;20.80;99.90
25112;DHT22;13092;51.996;4.458;2023-05-07T14:32:03;20.70;99.90
25112;DHT22;13092;51.996;4.458;2023-05-07T14:34:31;20.80;99.90
25112;DHT22;13092;51.996;4.458;2023-05-07T14:37:01;20.70;99.90
25112;DHT22;13092;51.996;4.458;2023-05-07T14:39:29;20.70;99.90
25112;DHT22;13092;51.996;4.458;2023-05-07T14:41:59;20.60;99.90
25112;DHT22;13092;51.996;4.458;2023-05-07T14:44:29;20.50;99.90
25112;DHT22;13092;51.996;4.458;2023-05-07T14:46:58;20.40;99.90
25112;DHT22;13092;51.996;4.458;2023-05-07T14:49:30;20.30;99.90
25112;DHT22;13092;51.996;4.458;2023-05-07T14:51:59;20.20;99.90
25112;DHT22;13092;51.996;4.458;2023-05-07T14:54:28;20.20;99.90
25112;DHT22;13092;51.996;4.458;2023-05-07T14:56:56;20.20;99.90
25112;DHT22;13092;51.996;4.458;2023-05-07T14:59:25;20.10;99.90
25112;DHT22;13092;51.996;4.458;2023-05-07T15:01:54;20.20;99.90
25112;DHT22;13092;51.996;4.458;2023-05-07T15:04:23;20.20;99.90
25112;DHT22;13092;51.996;4.458;2023-05-07T15:06:58;20.10;99.90
25112;DHT22;13092;51.996;4.458;2023-05-07T15:09:26;19.90;99.90
25112;DHT22;13092;51.996;4.458;2023-05-07T15:11:54;20.00;99.90
25112;DHT22;13092;51.996;4.458;2023-05-07T15:14:25;20.00;99.90
25112;DHT22;13092;51.996;4.458;2023-05-07T15:16:53;20.00;99.90
25112;DHT22;13092;51.996;4.458;2023-05-07T15:19:24;19.90;99.90
25112;DHT22;13092;51.996;4.458;2023-05-07T15:21:57;19.90;99.90
25112;DHT22;13092;51.996;4.458;2023-05-07T15:24:27;19.90;99.90
25112;DHT22;13092;51.996;4.458;2023-05-07T15:26:57;19.80;99.90
25112;DHT22;13092;51.996;4.458;2023-05-07T15:29:27;19.80;99.90
25112;DHT22;13092;51.996;4.458;2023-05-07T15:31:56;19.80;99.90
25112;DHT22;13092;51.996;4.458;2023-05-07T15:34:26;19.70;99.90
25112;DHT22;13092;51.996;4.458;2023-05-07T15:36:55;19.50;99.90
25112;DHT22;13092;51.996;4.458;2023-05-07T15:39:24;19.60;99.90
25112;DHT22;13092;51.996;4.458;2023-05-07T15:41:59;19.40;99.90
25112;DHT22;13092;51.996;4.458;2023-05-07T15:44:29;19.30;99.90
25112;DHT22;13092;51.996;4.458;2023-05-07T15:47:01;19.40;99.90
25112;DHT22;13092;51.996;4.458;2023-05-07T15:49:32;19.50;99.90
25112;DHT22;13092;51.996;4.458;2023-05-07T15:52:00;19.40;99.90
25112;DHT22;13092;51.996;4.458;2023-05-07T15:54:35;19.40;99.90
25112;DHT22;13092;51.996;4.458;2023-05-07T15:57:08;19.40;99.90